createdAt,value
2022-10-19T00:00:46.109Z,100268.72
2022-10-19T00:03:12.720Z,100259.56
2022-10-19T00:05:39.388Z,100264.16
2022-10-19T00:08:06.113Z,100256.59
2022-10-19T00:10:32.649Z,100254.44
2022-10-19T00:13:00.981Z,100251.19
2022-10-19T00:15:27.602Z,100258.03
2022-10-19T00:17:54.140Z,100263.66
2022-10-19T00:20:20.643Z,100260.94
2022-10-19T00:22:49.762Z,100262.28
2022-10-19T00:25:16.602Z,100264.72
2022-10-19T00:27:43.102Z,100267.16
2022-10-19T00:30:11.435Z,100275.84
2022-10-19T00:32:37.940Z,100271.19
2022-10-19T00:35:05.166Z,100273.88
2022-10-19T00:37:31.688Z,100276.31
2022-10-19T00:39:58.229Z,100280.38
2022-10-19T00:42:24.766Z,100271.69
2022-10-19T00:45:01.225Z,100282.25
2022-10-19T00:47:29.477Z,100286.03
2022-10-19T00:49:57.693Z,100274.91
2022-10-19T00:52:24.905Z,100274.91
2022-10-19T00:54:53.701Z,100281.94
2022-10-19T00:57:21.400Z,100273.81
2022-10-19T00:59:48.081Z,100271.66
2022-10-19T01:02:14.727Z,100274.38
2022-10-19T01:04:48.552Z,100270.88
2022-10-19T01:07:15.535Z,100272.50
2022-10-19T01:09:42.080Z,100271.09
2022-10-19T01:12:20.022Z,100262.94
2022-10-19T01:14:59.391Z,100263.81
2022-10-19T01:17:41.435Z,100279.00
2022-10-19T01:20:32.927Z,100271.16
2022-10-19T01:23:29.539Z,100270.34
2022-10-19T01:26:07.083Z,100262.13
2022-10-19T01:28:46.073Z,100263.25
2022-10-19T01:31:21.126Z,100255.63
2022-10-19T01:33:54.960Z,100242.03
2022-10-19T01:36:26.053Z,100244.75
2022-10-19T01:38:59.702Z,100240.97
2022-10-19T01:41:33.051Z,100244.25
2022-10-19T01:44:07.321Z,100241.78
2022-10-19T01:46:38.766Z,100240.44
2022-10-19T01:49:11.259Z,100237.72
2022-10-19T01:51:42.324Z,100238.53
2022-10-19T01:54:13.340Z,100236.16
2022-10-19T01:56:42.340Z,100230.72
2022-10-19T01:59:11.574Z,100232.41
2022-10-19T02:01:43.464Z,100230.19
2022-10-19T02:04:11.163Z,100228.00
2022-10-19T02:06:39.328Z,100227.50
2022-10-19T02:09:05.967Z,100219.34
2022-10-19T02:11:33.842Z,100215.59
2022-10-19T02:14:09.472Z,100212.47
2022-10-19T02:16:41.136Z,100209.50
2022-10-19T02:19:09.772Z,100210.13
2022-10-19T02:21:36.531Z,100214.56
2022-10-19T02:24:03.285Z,100213.00
2022-10-19T02:26:29.904Z,100216.56
2022-10-19T02:28:57.059Z,100215.44
2022-10-19T02:31:24.515Z,100207.66
2022-10-19T02:33:53.250Z,100213.97
2022-10-19T02:36:20.245Z,100219.09
2022-10-19T02:38:46.904Z,100209.34
2022-10-19T02:41:17.967Z,100215.06
2022-10-19T02:43:49.244Z,100216.94
2022-10-19T02:46:22.959Z,100213.44
2022-10-19T02:48:53.084Z,100212.94
2022-10-19T02:51:31.168Z,100216.75
2022-10-19T02:53:59.937Z,100211.88
2022-10-19T02:56:29.209Z,100217.81
2022-10-19T02:58:55.737Z,100218.38
2022-10-19T03:01:22.299Z,100229.50
2022-10-19T03:03:48.831Z,100227.63
2022-10-19T03:06:16.782Z,100229.81
2022-10-19T03:08:43.563Z,100230.09
2022-10-19T03:11:10.659Z,100227.38
2022-10-19T03:13:37.313Z,100224.94
2022-10-19T03:16:08.315Z,100225.75
2022-10-19T03:18:34.872Z,100221.16
2022-10-19T03:21:02.772Z,100224.38
2022-10-19T03:23:30.958Z,100231.97
2022-10-19T03:25:57.508Z,100230.06
2022-10-19T03:28:24.029Z,100237.34
2022-10-19T03:30:50.534Z,100233.00
2022-10-19T03:33:17.105Z,100242.53
2022-10-19T03:35:43.633Z,100240.13
2022-10-19T03:38:10.174Z,100242.31
2022-10-19T03:40:39.681Z,100246.34
2022-10-19T03:43:06.357Z,100253.13
2022-10-19T03:45:33.177Z,100251.50
2022-10-19T03:47:59.689Z,100254.47
2022-10-19T03:50:26.196Z,100250.16
2022-10-19T03:52:52.747Z,100253.66
2022-10-19T03:55:19.449Z,100254.53
2022-10-19T03:57:47.309Z,100248.31
2022-10-19T04:00:14.671Z,100242.38
2022-10-19T04:02:41.434Z,100240.44
2022-10-19T04:05:08.396Z,100249.66
2022-10-19T04:07:35.154Z,100254.53
2022-10-19T04:10:02.102Z,100250.47
2022-10-19T04:12:28.624Z,100256.44
2022-10-19T04:14:57.811Z,100257.50
2022-10-19T04:17:25.451Z,100267.00
2022-10-19T04:19:51.994Z,100262.13
2022-10-19T04:22:18.525Z,100257.25
2022-10-19T04:24:45.051Z,100258.31
2022-10-19T04:27:11.588Z,100258.59
2022-10-19T04:29:38.243Z,100260.97
2022-10-19T04:32:06.501Z,100257.44
2022-10-19T04:34:35.253Z,100259.34
2022-10-19T04:37:04.287Z,100269.09
2022-10-19T04:39:30.780Z,100262.88
2022-10-19T04:41:57.393Z,100271.00
2022-10-19T04:46:55.427Z,100262.88
2022-10-19T04:49:23.289Z,100257.44
2022-10-19T04:51:49.793Z,100260.41
2022-10-19T04:54:16.300Z,100254.69
2022-10-19T04:56:42.913Z,100251.72
2022-10-19T04:59:10.199Z,100252.53
2022-10-19T05:01:37.220Z,100248.72
2022-10-19T05:04:04.022Z,100252.28
2022-10-19T05:06:32.064Z,100252.78
2022-10-19T05:08:58.915Z,100242.75
2022-10-19T05:11:26.181Z,100238.75
2022-10-19T05:13:52.807Z,100245.25
2022-10-19T05:16:21.137Z,100244.72
2022-10-19T05:18:48.611Z,100238.22
2022-10-19T05:21:15.918Z,100237.66
2022-10-19T05:23:44.173Z,100243.38
2022-10-19T05:26:12.479Z,100236.59
2022-10-19T05:28:39.389Z,100234.69
2022-10-19T05:31:08.503Z,100233.06
2022-10-19T05:33:35.487Z,100229.81
2022-10-19T05:36:11.061Z,100234.41
2022-10-19T05:38:37.678Z,100234.63
2022-10-19T05:41:06.212Z,100228.69
2022-10-19T05:43:32.731Z,100237.63
2022-10-19T05:46:03.787Z,100241.72
2022-10-19T05:48:30.528Z,100237.13
2022-10-19T05:50:57.058Z,100240.09
2022-10-19T05:53:23.762Z,100247.16
2022-10-19T05:55:50.256Z,100243.09
2022-10-19T05:58:18.148Z,100253.88
2022-10-19T06:00:51.228Z,100248.47
2022-10-19T06:03:17.746Z,100242.75
2022-10-19T06:05:44.273Z,100252.78
2022-10-19T06:08:10.795Z,100247.38
2022-10-19T06:10:37.413Z,100249.28
2022-10-19T06:13:03.955Z,100249.53
2022-10-19T06:15:34.621Z,100250.91
2022-10-19T06:18:01.131Z,100249.00
2022-10-19T06:20:27.728Z,100249.53
2022-10-19T06:22:54.295Z,100249.19
2022-10-19T06:25:20.922Z,100253.53
2022-10-19T06:27:47.716Z,100248.38
2022-10-19T06:30:14.318Z,100251.91
2022-10-19T06:32:42.288Z,100259.75
2022-10-19T06:35:08.943Z,100253.22
2022-10-19T06:37:35.747Z,100254.03
2022-10-19T06:40:06.188Z,100263.78
2022-10-19T06:42:34.180Z,100273.31
2022-10-19T06:45:00.774Z,100268.09
2022-10-19T06:47:27.285Z,100277.88
2022-10-19T06:49:55.121Z,100271.06
2022-10-19T06:52:21.649Z,100274.31
2022-10-19T06:54:48.223Z,100274.81
2022-10-19T06:57:14.752Z,100270.75
2022-10-19T06:59:41.256Z,100267.22
2022-10-19T07:02:07.906Z,100274.00
2022-10-19T07:04:34.451Z,100277.75
2022-10-19T07:07:02.564Z,100270.13
2022-10-19T07:09:29.230Z,100278.81
2022-10-19T07:11:55.871Z,100273.66
2022-10-19T07:14:22.543Z,100278.47
2022-10-19T07:16:49.635Z,100282.81
2022-10-19T07:19:16.298Z,100288.97
2022-10-19T07:21:42.837Z,100284.06
2022-10-19T07:24:11.200Z,100287.34
2022-10-19T07:26:38.268Z,100292.38
2022-10-19T07:29:04.941Z,100294.75
2022-10-19T07:31:32.723Z,100295.25
2022-10-19T07:34:01.246Z,100302.28
2022-10-19T07:36:29.148Z,100290.09
2022-10-19T07:38:55.725Z,100290.66
2022-10-19T07:41:25.188Z,100290.56
2022-10-19T07:43:52.209Z,100284.72
2022-10-19T07:46:20.684Z,100283.53
2022-10-19T07:48:47.407Z,100290.72
2022-10-19T07:51:16.194Z,100289.53
2022-10-19T07:53:43.350Z,100287.38
2022-10-19T07:56:11.458Z,100285.34
2022-10-19T07:58:40.388Z,100278.44
2022-10-19T08:01:08.928Z,100285.56
2022-10-19T08:06:23.168Z,100274.97
2022-10-19T08:08:51.451Z,100277.50
2022-10-19T08:11:20.687Z,100285.06
2022-10-19T08:13:49.149Z,100281.44
2022-10-19T08:16:25.047Z,100283.06
2022-10-19T08:18:52.794Z,100286.66
2022-10-19T08:21:19.476Z,100282.97
2022-10-19T08:23:46.120Z,100281.06
2022-10-19T08:26:12.726Z,100283.94
2022-10-19T08:28:39.498Z,100286.03
2022-10-19T08:31:12.353Z,100286.88
2022-10-19T08:33:39.528Z,100294.59
2022-10-19T08:36:06.770Z,100286.56
2022-10-19T08:38:35.725Z,100281.44
2022-10-19T08:41:11.503Z,100279.28
2022-10-19T08:43:48.274Z,100268.53
2022-10-19T08:46:24.239Z,100268.94
2022-10-19T08:48:52.075Z,100261.47
2022-10-19T08:51:18.634Z,100256.75
2022-10-19T08:53:53.311Z,100249.44
2022-10-19T08:56:49.922Z,100254.53
2022-10-19T08:59:30.336Z,100257.47
2022-10-19T09:02:01.491Z,100249.78
2022-10-19T09:04:32.915Z,100258.34
2022-10-19T09:07:17.772Z,100254.97
2022-10-19T09:09:48.781Z,100254.56
2022-10-19T09:12:19.771Z,100252.75
2022-10-19T09:14:54.130Z,100248.88
2022-10-19T09:17:22.191Z,100241.81
2022-10-19T09:19:48.732Z,100240.13
2022-10-19T09:22:20.034Z,100248.50
2022-10-19T09:24:50.499Z,100252.41
2022-10-19T09:27:21.138Z,100246.25
2022-10-19T09:29:53.285Z,100257.56
2022-10-19T09:32:25.492Z,100259.28
2022-10-19T09:34:54.914Z,100251.38
2022-10-19T09:37:26.359Z,100254.75
2022-10-19T09:39:55.050Z,100253.13
2022-10-19T09:42:26.147Z,100241.94
2022-10-19T09:44:54.899Z,100244.88
2022-10-19T09:47:33.506Z,100249.09
2022-10-19T09:50:17.452Z,100251.03
2022-10-19T09:52:45.343Z,100260.81
2022-10-19T09:55:26.389Z,100264.66
2022-10-19T09:58:00.436Z,100246.72
2022-10-19T10:00:33.918Z,100247.75
2022-10-19T10:03:02.091Z,100250.69
2022-10-19T10:05:34.091Z,100258.16
2022-10-19T10:08:01.106Z,100250.75
2022-10-19T10:10:30.647Z,100253.81
2022-10-19T10:12:58.330Z,100239.28
2022-10-19T10:15:27.661Z,100233.00
2022-10-19T10:17:56.780Z,100236.44
2022-10-19T10:20:27.114Z,100231.16
2022-10-19T10:22:56.217Z,100234.34
2022-10-19T10:25:26.693Z,100238.34
2022-10-19T10:27:59.393Z,100235.50
2022-10-19T10:30:29.060Z,100236.41
2022-10-19T10:33:00.353Z,100242.81
2022-10-19T10:35:36.618Z,100244.47
2022-10-19T10:38:09.740Z,100240.69
2022-10-19T10:40:37.931Z,100238.97
2022-10-19T10:43:07.855Z,100237.47
2022-10-19T10:45:39.638Z,100226.84
2022-10-19T10:48:17.108Z,100224.47
2022-10-19T10:50:45.289Z,100224.94
2022-10-19T10:53:37.256Z,100220.94
2022-10-19T10:56:05.781Z,100215.81
2022-10-19T10:58:38.842Z,100222.25
2022-10-19T11:01:13.500Z,100201.13
2022-10-19T11:03:49.642Z,100206.88
2022-10-19T11:06:21.565Z,100198.53
2022-10-19T11:08:53.747Z,100197.13
2022-10-19T11:11:24.949Z,100187.63
2022-10-19T11:14:00.071Z,100181.81
2022-10-19T11:16:31.318Z,100187.69
2022-10-19T11:19:07.163Z,100191.69
2022-10-19T11:21:41.711Z,100183.88
2022-10-19T11:24:17.445Z,100181.56
2022-10-19T11:26:58.976Z,100169.19
2022-10-19T11:29:38.063Z,100169.09
2022-10-19T11:32:14.676Z,100158.69
2022-10-19T11:34:58.255Z,100156.72
2022-10-19T11:37:30.602Z,100147.25
2022-10-19T11:40:11.594Z,100144.44
2022-10-19T11:42:52.147Z,100142.56
2022-10-19T11:45:28.363Z,100139.53
2022-10-19T11:48:17.721Z,100128.53
2022-10-19T11:50:54.286Z,100128.75
2022-10-19T11:53:34.939Z,100124.81
2022-10-19T11:56:08.165Z,100112.50
2022-10-19T11:58:46.927Z,100112.47
2022-10-19T12:01:28.390Z,100106.44
2022-10-19T12:04:23.463Z,100094.69
2022-10-19T12:07:01.575Z,100101.44
2022-10-19T12:09:43.077Z,100095.97
2022-10-19T12:12:26.897Z,100087.97
2022-10-19T12:15:05.218Z,100093.38
2022-10-19T12:17:36.786Z,100086.47
2022-10-19T12:20:08.182Z,100094.34
2022-10-19T12:22:36.810Z,100092.78
2022-10-19T12:25:06.076Z,100081.44
2022-10-19T12:27:34.954Z,100078.91
2022-10-19T12:30:07.513Z,100071.31
2022-10-19T12:32:50.664Z,100069.00
2022-10-19T12:35:35.032Z,100067.63
2022-10-19T12:38:06.772Z,100075.47
2022-10-19T12:40:38.675Z,100077.22
2022-10-19T12:43:13.763Z,100073.88
2022-10-19T12:45:43.734Z,100073.44
2022-10-19T12:48:22.510Z,100069.28
2022-10-19T12:50:59.974Z,100062.91
2022-10-19T12:53:29.228Z,100063.00
2022-10-19T12:56:02.268Z,100063.47
2022-10-19T12:58:34.534Z,100068.50
2022-10-19T13:01:04.473Z,100062.19
2022-10-19T13:03:33.719Z,100053.41
2022-10-19T13:06:03.017Z,100057.38
2022-10-19T13:08:32.615Z,100044.81
2022-10-19T13:11:09.661Z,100048.94
2022-10-19T13:14:00.187Z,100045.88
2022-10-19T13:16:55.192Z,100039.53
2022-10-19T13:19:22.694Z,100044.63
2022-10-19T13:22:05.842Z,100044.31
2022-10-19T13:24:35.341Z,100024.03
2022-10-19T13:27:27.863Z,100033.97
2022-10-19T13:29:54.829Z,100030.13
2022-10-19T13:32:39.260Z,100024.25
2022-10-19T13:35:26.750Z,100023.31
2022-10-19T13:38:24.544Z,100024.94
2022-10-19T13:41:04.251Z,100027.47
2022-10-19T13:43:35.088Z,100027.34
2022-10-19T13:46:21.724Z,100027.44
2022-10-19T13:49:22.937Z,100011.09
2022-10-19T13:52:05.177Z,100008.22
2022-10-19T13:54:47.191Z,100004.53
2022-10-19T13:57:20.633Z,100021.50
2022-10-19T14:00:11.427Z,100018.22
2022-10-19T14:03:00.945Z,100013.88
2022-10-19T14:05:54.394Z,100009.03
2022-10-19T14:08:41.721Z,100000.94
2022-10-19T14:11:14.273Z,99999.41
2022-10-19T14:13:40.880Z,99992.94
2022-10-19T14:16:18.779Z,99987.75
2022-10-19T14:18:53.846Z,99983.72
2022-10-19T14:21:30.139Z,99988.44
2022-10-19T14:23:56.849Z,99991.59
2022-10-19T14:26:26.460Z,99981.50
2022-10-19T14:28:54.024Z,99982.03
2022-10-19T14:31:24.998Z,99978.72
2022-10-19T14:33:53.597Z,99974.28
2022-10-19T14:36:22.520Z,99972.94
2022-10-19T14:38:52.948Z,99976.22
2022-10-19T14:41:21.750Z,99973.41
2022-10-19T14:43:48.322Z,99977.69
2022-10-19T14:46:16.000Z,99976.88
2022-10-19T14:48:46.261Z,99965.66
2022-10-19T14:51:28.489Z,99967.00
2022-10-19T14:53:59.220Z,99956.97
2022-10-19T14:56:32.934Z,99958.72
2022-10-19T14:59:02.789Z,99960.06
2022-10-19T15:01:30.060Z,99952.16
2022-10-19T15:03:58.162Z,99957.50
2022-10-19T15:06:28.565Z,99950.63
2022-10-19T15:08:57.804Z,99954.78
2022-10-19T15:11:28.432Z,99951.88
2022-10-19T15:13:58.784Z,99946.47
2022-10-19T15:16:31.231Z,99948.44
2022-10-19T15:19:02.796Z,99941.03
2022-10-19T15:21:31.531Z,99946.22
2022-10-19T15:24:08.624Z,99944.66
2022-10-19T15:26:35.151Z,99946.25
2022-10-19T15:29:09.388Z,99943.66
2022-10-19T15:31:36.051Z,99931.97
2022-10-19T15:34:04.699Z,99940.72
2022-10-19T15:36:32.244Z,99949.56
2022-10-19T15:39:18.461Z,99950.34
2022-10-19T15:41:50.902Z,99938.47
2022-10-19T15:44:32.362Z,99937.44
2022-10-19T15:47:20.923Z,99929.09
2022-10-19T15:49:59.986Z,99919.69
2022-10-19T15:52:27.983Z,99919.63
2022-10-19T15:54:56.861Z,99912.75
2022-10-19T15:57:32.185Z,99916.38
2022-10-19T16:00:00.606Z,99913.69
2022-10-19T16:02:27.124Z,99920.78
2022-10-19T16:04:54.444Z,99917.81
2022-10-19T16:07:26.151Z,99913.81
2022-10-19T16:09:53.013Z,99919.09
2022-10-19T16:12:19.576Z,99911.56
2022-10-19T16:14:46.225Z,99903.84
2022-10-19T16:17:13.619Z,99915.09
2022-10-19T16:19:40.445Z,99905.59
2022-10-19T16:22:07.060Z,99917.31
2022-10-19T16:24:35.120Z,99916.00
2022-10-19T16:27:01.611Z,99911.28
2022-10-19T16:29:29.072Z,99907.28
2022-10-19T16:31:55.720Z,99912.69
2022-10-19T16:34:22.219Z,99912.78
2022-10-19T16:36:48.822Z,99913.88
2022-10-19T16:39:15.332Z,99920.72
2022-10-19T16:41:44.081Z,99914.25
2022-10-19T16:44:11.464Z,99911.28
2022-10-19T16:46:38.673Z,99916.88
2022-10-19T16:49:05.190Z,99919.22
2022-10-19T16:51:35.261Z,99912.09
2022-10-19T16:54:02.578Z,99923.75
2022-10-19T16:56:30.126Z,99918.69
2022-10-19T16:58:59.945Z,99917.94
2022-10-19T17:01:27.551Z,99915.41
2022-10-19T17:03:54.861Z,99924.63
2022-10-19T17:06:22.317Z,99918.28
2022-10-19T17:11:37.176Z,99904.41
2022-10-19T17:14:06.854Z,99913.50
2022-10-19T17:16:35.647Z,99912.47
2022-10-19T17:19:03.475Z,99918.03
2022-10-19T17:21:32.290Z,99914.91
2022-10-19T17:24:00.534Z,99913.91
2022-10-19T17:26:28.103Z,99919.94
2022-10-19T17:28:55.544Z,99909.19
2022-10-19T17:31:23.744Z,99920.97
2022-10-19T17:33:50.715Z,99913.22
2022-10-19T17:36:19.887Z,99919.25
2022-10-19T17:38:46.754Z,99918.84
2022-10-19T17:41:14.934Z,99918.84
2022-10-19T17:43:43.132Z,99916.25
2022-10-19T17:46:11.700Z,99913.22
2022-10-19T17:48:40.931Z,99912.41
2022-10-19T17:51:10.784Z,99909.28
2022-10-19T17:53:37.439Z,99909.88
2022-10-19T17:56:05.944Z,99908.06
2022-10-19T17:58:36.422Z,99910.84
2022-10-19T18:01:07.112Z,99908.16
2022-10-19T18:03:34.403Z,99912.56
2022-10-19T18:06:08.164Z,99909.94
2022-10-19T18:08:39.056Z,99908.63
2022-10-19T18:11:07.647Z,99910.63
2022-10-19T18:13:35.066Z,99904.50
2022-10-19T18:16:03.009Z,99900.75
2022-10-19T18:18:31.521Z,99905.16
2022-10-19T18:20:58.442Z,99906.28
2022-10-19T18:23:26.337Z,99898.50
2022-10-19T18:25:54.213Z,99901.00
2022-10-19T18:28:21.484Z,99906.22
2022-10-19T18:30:48.028Z,99904.59
2022-10-19T18:33:14.524Z,99895.44
2022-10-19T18:35:41.339Z,99899.03
2022-10-19T18:38:07.990Z,99896.59
2022-10-19T18:40:37.119Z,99894.19
2022-10-19T18:43:04.220Z,99894.78
2022-10-19T18:45:31.192Z,99885.13
2022-10-19T18:47:57.845Z,99888.69
2022-10-19T18:50:24.496Z,99877.94
2022-10-19T18:52:51.231Z,99880.41
2022-10-19T18:55:18.089Z,99877.19
2022-10-19T18:57:45.936Z,99876.19
2022-10-19T19:00:13.610Z,99872.66
2022-10-19T19:02:46.697Z,99877.56
2022-10-19T19:05:13.749Z,99874.34
2022-10-19T19:07:40.251Z,99877.34
2022-10-19T19:10:07.575Z,99876.63
2022-10-19T19:12:34.374Z,99877.47
2022-10-19T19:15:02.691Z,99881.59
2022-10-19T19:17:29.206Z,99864.81
2022-10-19T19:19:55.806Z,99867.00
2022-10-19T19:22:22.383Z,99867.31
2022-10-19T19:24:49.670Z,99855.97
2022-10-19T19:27:16.361Z,99856.53
2022-10-19T19:29:43.060Z,99849.78
2022-10-19T19:32:10.898Z,99846.56
2022-10-19T19:34:37.549Z,99850.69
2022-10-19T19:37:07.397Z,99845.31
2022-10-19T19:39:37.839Z,99846.72
2022-10-19T19:42:04.418Z,99842.69
2022-10-19T19:44:31.419Z,99845.41
2022-10-19T19:46:58.542Z,99852.19
2022-10-19T19:49:27.232Z,99848.16
2022-10-19T19:51:54.544Z,99846.06
2022-10-19T19:54:21.791Z,99842.03
2022-10-19T19:56:50.069Z,99839.59
2022-10-19T19:59:16.911Z,99828.56
2022-10-19T20:01:43.645Z,99830.22
2022-10-19T20:04:10.929Z,99840.78
2022-10-19T20:06:39.890Z,99846.47
2022-10-19T20:09:07.804Z,99831.88
2022-10-19T20:11:37.153Z,99842.22
2022-10-19T20:14:06.483Z,99837.91
2022-10-19T20:16:33.043Z,99837.09
2022-10-19T20:19:01.706Z,99842.78
2022-10-19T20:21:28.587Z,99846.88
2022-10-19T20:23:56.495Z,99840.44
2022-10-19T20:26:24.886Z,99836.41
2022-10-19T20:28:52.183Z,99841.25
2022-10-19T20:31:19.412Z,99836.94
2022-10-19T20:33:46.622Z,99837.22
2022-10-19T20:36:14.785Z,99836.66
2022-10-19T20:38:46.591Z,99828.22
2022-10-19T20:41:14.462Z,99820.09
2022-10-19T20:43:40.970Z,99813.09
2022-10-19T20:46:11.222Z,99827.41
2022-10-19T20:48:38.024Z,99823.31
2022-10-19T20:51:11.966Z,99820.31
2022-10-19T20:53:38.954Z,99825.72
2022-10-19T20:56:07.059Z,99831.16
2022-10-19T20:58:34.958Z,99836.03
2022-10-19T21:01:06.312Z,99829.63
2022-10-19T21:03:32.812Z,99826.66
2022-10-19T21:06:01.921Z,99830.25
2022-10-19T21:08:28.774Z,99836.78
2022-10-19T21:10:55.341Z,99832.50
2022-10-19T21:13:21.852Z,99838.50
2022-10-19T21:15:49.743Z,99828.47
2022-10-19T21:18:16.287Z,99823.41
2022-10-19T21:20:42.870Z,99824.00
2022-10-19T21:23:09.375Z,99821.28
2022-10-19T21:25:36.072Z,99816.97
2022-10-19T21:28:02.569Z,99812.41
2022-10-19T21:30:29.157Z,99810.56
2022-10-19T21:32:57.114Z,99811.69
2022-10-19T21:35:23.723Z,99811.47
2022-10-19T21:37:50.256Z,99808.53
2022-10-19T21:40:17.022Z,99821.53
2022-10-19T21:42:43.512Z,99818.63
2022-10-19T21:45:29.292Z,99810.22
2022-10-19T21:47:57.972Z,99809.69
2022-10-19T21:50:24.510Z,99805.09
2022-10-19T21:52:50.999Z,99786.94
2022-10-19T21:55:17.522Z,99783.97
2022-10-19T21:57:45.276Z,99780.16
2022-10-19T22:00:12.928Z,99778.25
2022-10-19T22:02:39.592Z,99773.69
2022-10-19T22:05:08.384Z,99769.66
2022-10-19T22:07:35.209Z,99767.75
2022-10-19T22:10:01.852Z,99772.66
2022-10-19T22:12:28.397Z,99769.13
2022-10-19T22:14:54.907Z,99764.53
2022-10-19T22:17:21.444Z,99760.00
2022-10-19T22:19:49.469Z,99752.97
2022-10-19T22:22:17.363Z,99758.13
2022-10-19T22:24:44.098Z,99765.25
2022-10-19T22:27:10.592Z,99752.88
2022-10-19T22:29:37.214Z,99752.91
2022-10-19T22:32:03.894Z,99757.50
2022-10-19T22:34:30.408Z,99762.38
2022-10-19T22:36:56.941Z,99772.72
2022-10-19T22:39:27.743Z,99781.66
2022-10-19T22:41:54.628Z,99778.25
2022-10-19T22:44:21.300Z,99781.28
2022-10-19T22:46:47.822Z,99774.31
2022-10-19T22:49:14.440Z,99773.00
2022-10-19T22:51:41.073Z,99763.59
2022-10-19T22:54:07.583Z,99760.69
2022-10-19T22:56:35.933Z,99754.81
2022-10-19T22:59:04.920Z,99752.44
2022-10-19T23:01:31.700Z,99742.50
2022-10-19T23:03:58.827Z,99735.00
2022-10-19T23:06:25.455Z,99736.91
2022-10-19T23:08:52.582Z,99737.78
2022-10-19T23:11:19.890Z,99737.78
2022-10-19T23:13:47.883Z,99738.09
2022-10-19T23:16:14.438Z,99744.91
2022-10-19T23:18:41.514Z,99734.16
2022-10-19T23:21:10.914Z,99734.22
2022-10-19T23:23:37.527Z,99733.94
2022-10-19T23:26:06.590Z,99739.38
2022-10-19T23:28:34.510Z,99725.91
2022-10-19T23:31:06.354Z,99741.28
2022-10-19T23:33:33.656Z,99723.75
2022-10-19T23:36:05.518Z,99727.25
2022-10-19T23:38:32.072Z,99725.34
2022-10-19T23:40:58.631Z,99728.34
2022-10-19T23:43:25.473Z,99725.13
2022-10-19T23:45:52.192Z,99721.34
2022-10-19T23:48:20.286Z,99721.94
2022-10-19T23:50:46.861Z,99714.66
2022-10-19T23:53:13.388Z,99702.25
2022-10-19T23:55:40.001Z,99708.44
2022-10-19T23:58:06.560Z,99708.44
